sensor_id;sensor_type;location;lat;lon;timestamp;P1;durP1;ratioP1;P2;durP2;ratioP2
24897;SDS011;12957;49.434;8.684;2022-08-19T00:01:43;15.63;;;13.80;;
24897;SDS011;12957;49.434;8.684;2022-08-19T00:04:10;17.05;;;13.32;;
24897;SDS011;12957;49.434;8.684;2022-08-19T00:06:37;21.52;;;12.95;;
24897;SDS011;12957;49.434;8.684;2022-08-19T00:09:04;15.57;;;13.05;;
24897;SDS011;12957;49.434;8.684;2022-08-19T00:11:30;15.38;;;13.77;;
24897;SDS011;12957;49.434;8.684;2022-08-19T00:13:56;14.60;;;13.00;;
24897;SDS011;12957;49.434;8.684;2022-08-19T00:16:22;16.35;;;13.18;;
24897;SDS011;12957;49.434;8.684;2022-08-19T00:18:48;15.20;;;12.38;;
24897;SDS011;12957;49.434;8.684;2022-08-19T00:21:13;16.63;;;12.98;;
24897;SDS011;12957;49.434;8.684;2022-08-19T00:23:39;15.15;;;13.30;;
24897;SDS011;12957;49.434;8.684;2022-08-19T00:26:06;14.88;;;12.95;;
24897;SDS011;12957;49.434;8.684;2022-08-19T00:28:32;16.55;;;13.07;;
24897;SDS011;12957;49.434;8.684;2022-08-19T00:30:58;16.55;;;13.00;;
24897;SDS011;12957;49.434;8.684;2022-08-19T00:33:24;14.95;;;12.98;;
24897;SDS011;12957;49.434;8.684;2022-08-19T00:35:49;15.77;;;13.05;;
24897;SDS011;12957;49.434;8.684;2022-08-19T00:38:15;15.32;;;13.20;;
24897;SDS011;12957;49.434;8.684;2022-08-19T00:40:42;14.98;;;13.10;;
24897;SDS011;12957;49.434;8.684;2022-08-19T00:43:09;17.67;;;13.13;;
24897;SDS011;12957;49.434;8.684;2022-08-19T00:45:35;14.75;;;13.25;;
24897;SDS011;12957;49.434;8.684;2022-08-19T00:48:01;18.67;;;13.65;;
24897;SDS011;12957;49.434;8.684;2022-08-19T00:50:29;14.98;;;13.40;;
24897;SDS011;12957;49.434;8.684;2022-08-19T00:52:55;14.63;;;13.02;;
24897;SDS011;12957;49.434;8.684;2022-08-19T00:55:22;14.55;;;12.98;;
24897;SDS011;12957;49.434;8.684;2022-08-19T00:57:51;16.67;;;12.85;;
24897;SDS011;12957;49.434;8.684;2022-08-19T01:00:20;15.07;;;12.88;;
24897;SDS011;12957;49.434;8.684;2022-08-19T01:02:47;16.05;;;12.98;;
24897;SDS011;12957;49.434;8.684;2022-08-19T01:05:16;15.70;;;12.60;;
24897;SDS011;12957;49.434;8.684;2022-08-19T01:07:44;15.90;;;13.38;;
24897;SDS011;12957;49.434;8.684;2022-08-19T01:10:12;16.80;;;13.60;;
24897;SDS011;12957;49.434;8.684;2022-08-19T01:12:39;14.80;;;13.05;;
24897;SDS011;12957;49.434;8.684;2022-08-19T01:15:05;14.27;;;12.75;;
24897;SDS011;12957;49.434;8.684;2022-08-19T01:17:33;14.95;;;13.30;;
24897;SDS011;12957;49.434;8.684;2022-08-19T01:20:00;14.45;;;12.63;;
24897;SDS011;12957;49.434;8.684;2022-08-19T01:25:00;15.10;;;13.35;;
24897;SDS011;12957;49.434;8.684;2022-08-19T01:27:26;17.00;;;13.15;;
24897;SDS011;12957;49.434;8.684;2022-08-19T01:29:52;17.00;;;13.25;;
24897;SDS011;12957;49.434;8.684;2022-08-19T01:32:18;15.98;;;13.40;;
24897;SDS011;12957;49.434;8.684;2022-08-19T01:34:44;14.15;;;12.57;;
24897;SDS011;12957;49.434;8.684;2022-08-19T01:37:12;17.35;;;12.60;;
24897;SDS011;12957;49.434;8.684;2022-08-19T01:39:40;15.82;;;13.57;;
24897;SDS011;12957;49.434;8.684;2022-08-19T01:42:06;17.27;;;13.70;;
24897;SDS011;12957;49.434;8.684;2022-08-19T01:44:34;15.75;;;13.27;;
24897;SDS011;12957;49.434;8.684;2022-08-19T01:47:01;15.85;;;14.15;;
24897;SDS011;12957;49.434;8.684;2022-08-19T01:49:28;16.58;;;13.20;;
24897;SDS011;12957;49.434;8.684;2022-08-19T01:51:53;15.40;;;13.77;;
24897;SDS011;12957;49.434;8.684;2022-08-19T01:54:19;14.38;;;12.75;;
24897;SDS011;12957;49.434;8.684;2022-08-19T01:56:46;15.27;;;13.05;;
24897;SDS011;12957;49.434;8.684;2022-08-19T01:59:12;14.35;;;12.85;;
24897;SDS011;12957;49.434;8.684;2022-08-19T02:01:40;15.18;;;13.52;;
24897;SDS011;12957;49.434;8.684;2022-08-19T02:04:06;19.02;;;13.25;;
24897;SDS011;12957;49.434;8.684;2022-08-19T02:06:32;15.40;;;12.75;;
24897;SDS011;12957;49.434;8.684;2022-08-19T02:08:58;15.48;;;13.65;;
24897;SDS011;12957;49.434;8.684;2022-08-19T02:11:24;16.13;;;13.50;;
24897;SDS011;12957;49.434;8.684;2022-08-19T02:13:52;15.63;;;13.10;;
24897;SDS011;12957;49.434;8.684;2022-08-19T02:16:18;15.40;;;13.10;;
24897;SDS011;12957;49.434;8.684;2022-08-19T02:18:45;16.77;;;13.68;;
24897;SDS011;12957;49.434;8.684;2022-08-19T02:21:12;15.45;;;13.27;;
24897;SDS011;12957;49.434;8.684;2022-08-19T02:23:38;14.80;;;13.13;;
24897;SDS011;12957;49.434;8.684;2022-08-19T02:26:03;15.30;;;13.02;;
24897;SDS011;12957;49.434;8.684;2022-08-19T02:28:29;14.30;;;12.80;;
24897;SDS011;12957;49.434;8.684;2022-08-19T02:30:54;16.52;;;13.23;;
24897;SDS011;12957;49.434;8.684;2022-08-19T02:33:20;14.57;;;12.73;;
24897;SDS011;12957;49.434;8.684;2022-08-19T02:35:45;15.40;;;12.95;;
24897;SDS011;12957;49.434;8.684;2022-08-19T02:38:11;15.95;;;13.85;;
24897;SDS011;12957;49.434;8.684;2022-08-19T02:40:53;17.35;;;13.55;;
24897;SDS011;12957;49.434;8.684;2022-08-19T02:43:20;14.85;;;13.18;;
24897;SDS011;12957;49.434;8.684;2022-08-19T02:45:46;17.45;;;14.23;;
24897;SDS011;12957;49.434;8.684;2022-08-19T02:48:14;19.95;;;14.27;;
24897;SDS011;12957;49.434;8.684;2022-08-19T02:50:42;17.85;;;13.95;;
24897;SDS011;12957;49.434;8.684;2022-08-19T02:53:07;15.68;;;13.73;;
24897;SDS011;12957;49.434;8.684;2022-08-19T02:55:33;18.30;;;14.88;;
24897;SDS011;12957;49.434;8.684;2022-08-19T02:57:59;18.15;;;14.27;;
24897;SDS011;12957;49.434;8.684;2022-08-19T03:00:25;16.58;;;13.70;;
24897;SDS011;12957;49.434;8.684;2022-08-19T03:02:51;16.60;;;13.18;;
24897;SDS011;12957;49.434;8.684;2022-08-19T03:05:17;16.58;;;13.52;;
24897;SDS011;12957;49.434;8.684;2022-08-19T03:07:42;15.52;;;13.40;;
24897;SDS011;12957;49.434;8.684;2022-08-19T03:10:08;16.80;;;14.02;;
24897;SDS011;12957;49.434;8.684;2022-08-19T03:12:37;17.58;;;14.20;;
24897;SDS011;12957;49.434;8.684;2022-08-19T03:15:05;16.13;;;13.55;;
24897;SDS011;12957;49.434;8.684;2022-08-19T03:17:32;16.10;;;14.20;;
24897;SDS011;12957;49.434;8.684;2022-08-19T03:19:58;17.30;;;13.60;;
24897;SDS011;12957;49.434;8.684;2022-08-19T03:22:23;17.40;;;14.32;;
24897;SDS011;12957;49.434;8.684;2022-08-19T03:24:50;17.15;;;13.98;;
24897;SDS011;12957;49.434;8.684;2022-08-19T03:27:15;17.70;;;13.57;;
24897;SDS011;12957;49.434;8.684;2022-08-19T03:29:42;23.05;;;14.70;;
24897;SDS011;12957;49.434;8.684;2022-08-19T03:32:08;20.08;;;15.18;;
24897;SDS011;12957;49.434;8.684;2022-08-19T03:34:35;17.38;;;14.10;;
24897;SDS011;12957;49.434;8.684;2022-08-19T03:37:09;19.88;;;14.82;;
24897;SDS011;12957;49.434;8.684;2022-08-19T03:39:36;18.08;;;14.75;;
24897;SDS011;12957;49.434;8.684;2022-08-19T03:42:01;20.38;;;15.27;;
24897;SDS011;12957;49.434;8.684;2022-08-19T03:44:28;20.05;;;15.30;;
24897;SDS011;12957;49.434;8.684;2022-08-19T03:46:55;20.20;;;14.80;;
24897;SDS011;12957;49.434;8.684;2022-08-19T03:49:23;19.55;;;14.57;;
24897;SDS011;12957;49.434;8.684;2022-08-19T03:51:50;18.65;;;14.70;;
24897;SDS011;12957;49.434;8.684;2022-08-19T03:54:17;17.92;;;14.20;;
24897;SDS011;12957;49.434;8.684;2022-08-19T03:56:44;16.20;;;13.88;;
24897;SDS011;12957;49.434;8.684;2022-08-19T03:59:15;16.45;;;13.60;;
24897;SDS011;12957;49.434;8.684;2022-08-19T04:01:42;18.50;;;14.48;;
24897;SDS011;12957;49.434;8.684;2022-08-19T04:04:07;20.48;;;14.52;;
24897;SDS011;12957;49.434;8.684;2022-08-19T04:06:34;19.60;;;14.60;;
24897;SDS011;12957;49.434;8.684;2022-08-19T04:09:02;19.23;;;14.15;;
24897;SDS011;12957;49.434;8.684;2022-08-19T04:11:39;16.55;;;13.48;;
24897;SDS011;12957;49.434;8.684;2022-08-19T04:14:07;17.52;;;14.18;;
24897;SDS011;12957;49.434;8.684;2022-08-19T04:16:33;18.52;;;14.68;;
24897;SDS011;12957;49.434;8.684;2022-08-19T04:18:59;18.85;;;14.98;;
24897;SDS011;12957;49.434;8.684;2022-08-19T04:21:26;19.10;;;14.82;;
24897;SDS011;12957;49.434;8.684;2022-08-19T04:23:53;17.00;;;14.20;;
24897;SDS011;12957;49.434;8.684;2022-08-19T04:26:23;16.65;;;13.80;;
24897;SDS011;12957;49.434;8.684;2022-08-19T04:28:50;19.92;;;15.23;;
24897;SDS011;12957;49.434;8.684;2022-08-19T04:31:21;21.00;;;15.23;;
24897;SDS011;12957;49.434;8.684;2022-08-19T04:33:51;23.73;;;15.18;;
24897;SDS011;12957;49.434;8.684;2022-08-19T04:36:18;19.05;;;14.93;;
24897;SDS011;12957;49.434;8.684;2022-08-19T04:38:47;29.25;;;14.10;;
24897;SDS011;12957;49.434;8.684;2022-08-19T04:41:13;18.30;;;14.38;;
24897;SDS011;12957;49.434;8.684;2022-08-19T04:43:57;19.13;;;15.15;;
24897;SDS011;12957;49.434;8.684;2022-08-19T04:46:23;17.45;;;14.30;;
24897;SDS011;12957;49.434;8.684;2022-08-19T04:48:48;18.40;;;14.00;;
24897;SDS011;12957;49.434;8.684;2022-08-19T04:51:14;16.88;;;14.50;;
24897;SDS011;12957;49.434;8.684;2022-08-19T04:53:40;19.15;;;14.85;;
24897;SDS011;12957;49.434;8.684;2022-08-19T04:56:07;18.25;;;14.18;;
24897;SDS011;12957;49.434;8.684;2022-08-19T04:58:34;18.83;;;14.20;;
24897;SDS011;12957;49.434;8.684;2022-08-19T05:01:00;18.25;;;14.13;;
24897;SDS011;12957;49.434;8.684;2022-08-19T05:03:26;19.73;;;13.57;;
24897;SDS011;12957;49.434;8.684;2022-08-19T05:05:52;16.88;;;13.60;;
24897;SDS011;12957;49.434;8.684;2022-08-19T05:08:18;17.35;;;14.13;;
24897;SDS011;12957;49.434;8.684;2022-08-19T05:10:49;20.00;;;13.02;;
24897;SDS011;12957;49.434;8.684;2022-08-19T05:13:16;15.43;;;12.73;;
24897;SDS011;12957;49.434;8.684;2022-08-19T05:15:43;18.33;;;13.95;;
24897;SDS011;12957;49.434;8.684;2022-08-19T05:18:09;15.30;;;13.00;;
24897;SDS011;12957;49.434;8.684;2022-08-19T05:20:53;16.02;;;13.07;;
24897;SDS011;12957;49.434;8.684;2022-08-19T05:23:37;19.10;;;14.43;;
24897;SDS011;12957;49.434;8.684;2022-08-19T05:26:03;16.80;;;14.00;;
24897;SDS011;12957;49.434;8.684;2022-08-19T05:28:28;17.35;;;13.57;;
24897;SDS011;12957;49.434;8.684;2022-08-19T05:30:54;15.90;;;13.27;;
24897;SDS011;12957;49.434;8.684;2022-08-19T05:33:20;19.33;;;14.18;;
24897;SDS011;12957;49.434;8.684;2022-08-19T05:35:46;15.90;;;13.07;;
24897;SDS011;12957;49.434;8.684;2022-08-19T05:38:13;16.80;;;13.73;;
24897;SDS011;12957;49.434;8.684;2022-08-19T05:40:39;16.35;;;13.73;;
24897;SDS011;12957;49.434;8.684;2022-08-19T05:43:05;17.95;;;12.85;;
24897;SDS011;12957;49.434;8.684;2022-08-19T05:45:32;18.35;;;14.60;;
24897;SDS011;12957;49.434;8.684;2022-08-19T05:47:57;17.70;;;13.60;;
24897;SDS011;12957;49.434;8.684;2022-08-19T05:50:23;16.73;;;13.82;;
24897;SDS011;12957;49.434;8.684;2022-08-19T05:52:51;16.98;;;14.02;;
24897;SDS011;12957;49.434;8.684;2022-08-19T05:55:17;20.33;;;15.82;;
24897;SDS011;12957;49.434;8.684;2022-08-19T05:57:46;20.80;;;14.18;;
24897;SDS011;12957;49.434;8.684;2022-08-19T06:00:12;24.83;;;15.90;;
24897;SDS011;12957;49.434;8.684;2022-08-19T06:02:39;23.63;;;16.48;;
24897;SDS011;12957;49.434;8.684;2022-08-19T06:05:05;18.83;;;13.73;;
24897;SDS011;12957;49.434;8.684;2022-08-19T06:07:33;21.45;;;15.18;;
24897;SDS011;12957;49.434;8.684;2022-08-19T06:10:04;19.77;;;14.80;;
24897;SDS011;12957;49.434;8.684;2022-08-19T06:12:31;22.80;;;17.88;;
24897;SDS011;12957;49.434;8.684;2022-08-19T06:15:09;27.52;;;17.65;;
24897;SDS011;12957;49.434;8.684;2022-08-19T06:17:36;22.13;;;16.17;;
24897;SDS011;12957;49.434;8.684;2022-08-19T06:20:06;24.40;;;15.20;;
24897;SDS011;12957;49.434;8.684;2022-08-19T06:22:37;22.38;;;15.95;;
24897;SDS011;12957;49.434;8.684;2022-08-19T06:25:04;20.85;;;15.60;;
24897;SDS011;12957;49.434;8.684;2022-08-19T06:27:30;27.65;;;17.23;;
24897;SDS011;12957;49.434;8.684;2022-08-19T06:29:57;20.50;;;15.38;;
24897;SDS011;12957;49.434;8.684;2022-08-19T06:32:22;21.08;;;15.18;;
24897;SDS011;12957;49.434;8.684;2022-08-19T06:34:48;24.80;;;15.85;;
24897;SDS011;12957;49.434;8.684;2022-08-19T06:37:14;25.77;;;16.95;;
24897;SDS011;12957;49.434;8.684;2022-08-19T06:39:41;26.83;;;16.40;;
24897;SDS011;12957;49.434;8.684;2022-08-19T06:42:08;19.10;;;15.18;;
24897;SDS011;12957;49.434;8.684;2022-08-19T06:44:37;24.52;;;17.33;;
24897;SDS011;12957;49.434;8.684;2022-08-19T06:47:04;20.92;;;16.70;;
24897;SDS011;12957;49.434;8.684;2022-08-19T06:49:32;24.45;;;16.42;;
24897;SDS011;12957;49.434;8.684;2022-08-19T06:51:58;18.20;;;13.80;;
24897;SDS011;12957;49.434;8.684;2022-08-19T06:54:24;21.48;;;16.70;;
24897;SDS011;12957;49.434;8.684;2022-08-19T06:56:50;26.10;;;17.63;;
24897;SDS011;12957;49.434;8.684;2022-08-19T06:59:17;22.33;;;16.05;;
24897;SDS011;12957;49.434;8.684;2022-08-19T07:01:45;20.27;;;16.30;;
24897;SDS011;12957;49.434;8.684;2022-08-19T07:04:13;26.13;;;17.55;;
24897;SDS011;12957;49.434;8.684;2022-08-19T07:06:40;20.83;;;15.38;;
24897;SDS011;12957;49.434;8.684;2022-08-19T07:09:07;22.95;;;15.65;;
24897;SDS011;12957;49.434;8.684;2022-08-19T07:11:33;18.17;;;14.70;;
24897;SDS011;12957;49.434;8.684;2022-08-19T07:13:59;16.65;;;14.13;;
24897;SDS011;12957;49.434;8.684;2022-08-19T07:16:25;16.35;;;13.85;;
24897;SDS011;12957;49.434;8.684;2022-08-19T07:18:51;17.15;;;14.32;;
24897;SDS011;12957;49.434;8.684;2022-08-19T07:21:18;21.92;;;14.23;;
24897;SDS011;12957;49.434;8.684;2022-08-19T07:23:48;21.33;;;13.90;;
24897;SDS011;12957;49.434;8.684;2022-08-19T07:26:22;20.27;;;13.93;;
24897;SDS011;12957;49.434;8.684;2022-08-19T07:28:51;19.77;;;14.57;;
24897;SDS011;12957;49.434;8.684;2022-08-19T07:31:18;15.77;;;13.07;;
24897;SDS011;12957;49.434;8.684;2022-08-19T07:33:46;17.33;;;13.50;;
24897;SDS011;12957;49.434;8.684;2022-08-19T07:36:12;19.65;;;13.43;;
24897;SDS011;12957;49.434;8.684;2022-08-19T07:38:40;19.13;;;13.15;;
24897;SDS011;12957;49.434;8.684;2022-08-19T07:41:06;18.40;;;14.15;;
24897;SDS011;12957;49.434;8.684;2022-08-19T07:43:33;16.98;;;13.55;;
24897;SDS011;12957;49.434;8.684;2022-08-19T07:45:59;17.30;;;12.40;;
24897;SDS011;12957;49.434;8.684;2022-08-19T07:48:26;15.88;;;12.00;;
24897;SDS011;12957;49.434;8.684;2022-08-19T07:50:56;18.20;;;13.02;;
24897;SDS011;12957;49.434;8.684;2022-08-19T07:53:24;16.88;;;12.88;;
24897;SDS011;12957;49.434;8.684;2022-08-19T07:55:50;13.90;;;11.07;;
24897;SDS011;12957;49.434;8.684;2022-08-19T07:58:18;21.55;;;13.10;;
24897;SDS011;12957;49.434;8.684;2022-08-19T08:00:45;23.55;;;12.07;;
24897;SDS011;12957;49.434;8.684;2022-08-19T08:03:12;13.43;;;10.85;;
24897;SDS011;12957;49.434;8.684;2022-08-19T08:05:38;15.90;;;11.95;;
24897;SDS011;12957;49.434;8.684;2022-08-19T08:08:23;19.88;;;12.65;;
24897;SDS011;12957;49.434;8.684;2022-08-19T08:11:07;16.00;;;11.93;;
24897;SDS011;12957;49.434;8.684;2022-08-19T08:13:33;14.95;;;11.75;;
24897;SDS011;12957;49.434;8.684;2022-08-19T08:16:00;14.35;;;11.48;;
24897;SDS011;12957;49.434;8.684;2022-08-19T08:18:26;17.80;;;11.32;;
24897;SDS011;12957;49.434;8.684;2022-08-19T08:20:52;13.93;;;10.45;;
24897;SDS011;12957;49.434;8.684;2022-08-19T08:23:17;14.60;;;10.40;;
24897;SDS011;12957;49.434;8.684;2022-08-19T08:25:54;12.50;;;9.75;;
24897;SDS011;12957;49.434;8.684;2022-08-19T08:28:20;11.00;;;8.20;;
24897;SDS011;12957;49.434;8.684;2022-08-19T08:30:47;14.80;;;9.35;;
24897;SDS011;12957;49.434;8.684;2022-08-19T08:33:13;14.00;;;10.18;;
24897;SDS011;12957;49.434;8.684;2022-08-19T08:35:43;11.85;;;8.32;;
24897;SDS011;12957;49.434;8.684;2022-08-19T08:38:10;12.57;;;9.77;;
24897;SDS011;12957;49.434;8.684;2022-08-19T08:40:42;10.27;;;9.18;;
24897;SDS011;12957;49.434;8.684;2022-08-19T08:51:20;11.00;;;7.88;;
24897;SDS011;12957;49.434;8.684;2022-08-19T08:53:48;15.55;;;8.15;;
24897;SDS011;12957;49.434;8.684;2022-08-19T08:56:16;10.32;;;6.97;;
24897;SDS011;12957;49.434;8.684;2022-08-19T08:58:47;9.23;;;6.85;;
24897;SDS011;12957;49.434;8.684;2022-08-19T09:01:17;12.48;;;6.43;;
24897;SDS011;12957;49.434;8.684;2022-08-19T09:03:42;10.55;;;7.10;;
24897;SDS011;12957;49.434;8.684;2022-08-19T09:11:29;8.43;;;6.55;;
24897;SDS011;12957;49.434;8.684;2022-08-19T09:16:41;6.53;;;5.75;;
24897;SDS011;12957;49.434;8.684;2022-08-19T09:19:06;7.40;;;5.82;;
24897;SDS011;12957;49.434;8.684;2022-08-19T09:21:32;7.43;;;6.38;;
24897;SDS011;12957;49.434;8.684;2022-08-19T09:23:59;6.97;;;5.40;;
24897;SDS011;12957;49.434;8.684;2022-08-19T09:26:25;8.40;;;4.85;;
24897;SDS011;12957;49.434;8.684;2022-08-19T09:28:51;6.53;;;5.45;;
24897;SDS011;12957;49.434;8.684;2022-08-19T09:31:22;6.60;;;4.57;;
24897;SDS011;12957;49.434;8.684;2022-08-19T09:33:48;5.93;;;4.70;;
24897;SDS011;12957;49.434;8.684;2022-08-19T09:36:15;6.85;;;4.72;;
24897;SDS011;12957;49.434;8.684;2022-08-19T09:38:42;4.97;;;4.18;;
24897;SDS011;12957;49.434;8.684;2022-08-19T09:41:09;4.90;;;4.45;;
24897;SDS011;12957;49.434;8.684;2022-08-19T09:43:39;8.02;;;4.55;;
24897;SDS011;12957;49.434;8.684;2022-08-19T09:46:05;4.80;;;4.30;;
24897;SDS011;12957;49.434;8.684;2022-08-19T09:48:34;4.97;;;4.47;;
24897;SDS011;12957;49.434;8.684;2022-08-19T09:51:03;13.73;;;5.82;;
24897;SDS011;12957;49.434;8.684;2022-08-19T09:53:29;7.93;;;5.65;;
24897;SDS011;12957;49.434;8.684;2022-08-19T09:55:55;5.90;;;5.15;;
24897;SDS011;12957;49.434;8.684;2022-08-19T09:58:20;4.35;;;4.03;;
24897;SDS011;12957;49.434;8.684;2022-08-19T10:00:47;7.00;;;4.68;;
24897;SDS011;12957;49.434;8.684;2022-08-19T10:03:13;5.68;;;4.35;;
24897;SDS011;12957;49.434;8.684;2022-08-19T10:05:38;7.70;;;4.57;;
24897;SDS011;12957;49.434;8.684;2022-08-19T10:08:13;9.73;;;4.82;;
24897;SDS011;12957;49.434;8.684;2022-08-19T10:10:42;5.10;;;4.57;;
24897;SDS011;12957;49.434;8.684;2022-08-19T10:13:09;6.05;;;4.30;;
24897;SDS011;12957;49.434;8.684;2022-08-19T10:15:34;5.07;;;4.38;;
24897;SDS011;12957;49.434;8.684;2022-08-19T10:18:00;4.25;;;3.95;;
24897;SDS011;12957;49.434;8.684;2022-08-19T10:20:26;4.40;;;4.00;;
24897;SDS011;12957;49.434;8.684;2022-08-19T10:22:51;4.60;;;4.20;;
24897;SDS011;12957;49.434;8.684;2022-08-19T10:25:17;8.60;;;4.05;;
24897;SDS011;12957;49.434;8.684;2022-08-19T10:27:42;6.28;;;4.07;;
24897;SDS011;12957;49.434;8.684;2022-08-19T10:30:08;4.18;;;3.88;;
24897;SDS011;12957;49.434;8.684;2022-08-19T10:32:34;4.25;;;3.85;;
24897;SDS011;12957;49.434;8.684;2022-08-19T10:35:00;3.85;;;3.55;;
24897;SDS011;12957;49.434;8.684;2022-08-19T10:37:27;5.00;;;3.70;;
24897;SDS011;12957;49.434;8.684;2022-08-19T10:39:52;9.30;;;3.25;;
24897;SDS011;12957;49.434;8.684;2022-08-19T10:42:18;4.72;;;3.78;;
24897;SDS011;12957;49.434;8.684;2022-08-19T10:44:44;3.72;;;3.42;;
24897;SDS011;12957;49.434;8.684;2022-08-19T10:47:11;3.50;;;3.20;;
24897;SDS011;12957;49.434;8.684;2022-08-19T10:49:36;3.72;;;3.38;;
24897;SDS011;12957;49.434;8.684;2022-08-19T10:52:24;3.90;;;3.60;;
24897;SDS011;12957;49.434;8.684;2022-08-19T10:55:05;3.65;;;3.38;;
24897;SDS011;12957;49.434;8.684;2022-08-19T10:57:50;4.97;;;3.40;;
24897;SDS011;12957;49.434;8.684;2022-08-19T11:00:18;4.03;;;3.72;;
24897;SDS011;12957;49.434;8.684;2022-08-19T11:02:44;3.60;;;3.20;;
24897;SDS011;12957;49.434;8.684;2022-08-19T11:05:10;6.35;;;3.88;;
24897;SDS011;12957;49.434;8.684;2022-08-19T11:07:39;5.53;;;3.55;;
24897;SDS011;12957;49.434;8.684;2022-08-19T11:10:05;3.88;;;3.45;;
24897;SDS011;12957;49.434;8.684;2022-08-19T11:12:31;3.88;;;3.50;;
24897;SDS011;12957;49.434;8.684;2022-08-19T11:14:58;4.30;;;3.72;;
24897;SDS011;12957;49.434;8.684;2022-08-19T11:17:23;5.65;;;4.00;;
24897;SDS011;12957;49.434;8.684;2022-08-19T11:19:49;5.63;;;4.03;;
24897;SDS011;12957;49.434;8.684;2022-08-19T11:22:15;5.57;;;4.40;;
24897;SDS011;12957;49.434;8.684;2022-08-19T11:24:40;5.70;;;4.80;;
24897;SDS011;12957;49.434;8.684;2022-08-19T11:27:07;6.80;;;4.05;;
24897;SDS011;12957;49.434;8.684;2022-08-19T11:29:34;5.03;;;4.10;;
24897;SDS011;12957;49.434;8.684;2022-08-19T11:32:04;5.30;;;4.80;;
24897;SDS011;12957;49.434;8.684;2022-08-19T11:34:34;6.00;;;4.70;;
24897;SDS011;12957;49.434;8.684;2022-08-19T11:37:00;7.13;;;4.22;;
24897;SDS011;12957;49.434;8.684;2022-08-19T11:39:27;4.97;;;4.57;;
24897;SDS011;12957;49.434;8.684;2022-08-19T11:41:53;4.75;;;4.25;;
24897;SDS011;12957;49.434;8.684;2022-08-19T11:44:19;5.43;;;4.93;;
24897;SDS011;12957;49.434;8.684;2022-08-19T11:46:45;4.50;;;4.15;;
24897;SDS011;12957;49.434;8.684;2022-08-19T11:49:11;5.00;;;4.60;;
24897;SDS011;12957;49.434;8.684;2022-08-19T11:51:38;5.38;;;4.88;;
24897;SDS011;12957;49.434;8.684;2022-08-19T11:54:04;5.63;;;4.70;;
24897;SDS011;12957;49.434;8.684;2022-08-19T11:56:30;5.15;;;4.20;;
24897;SDS011;12957;49.434;8.684;2022-08-19T11:58:55;5.60;;;4.70;;
24897;SDS011;12957;49.434;8.684;2022-08-19T12:01:22;5.10;;;4.68;;
24897;SDS011;12957;49.434;8.684;2022-08-19T12:03:49;9.57;;;4.82;;
24897;SDS011;12957;49.434;8.684;2022-08-19T12:06:16;5.28;;;4.82;;
24897;SDS011;12957;49.434;8.684;2022-08-19T12:08:44;4.57;;;4.28;;
24897;SDS011;12957;49.434;8.684;2022-08-19T12:11:11;4.78;;;4.20;;
24897;SDS011;12957;49.434;8.684;2022-08-19T12:13:37;5.03;;;4.63;;
24897;SDS011;12957;49.434;8.684;2022-08-19T12:16:14;4.75;;;4.35;;
24897;SDS011;12957;49.434;8.684;2022-08-19T12:18:41;5.03;;;4.53;;
24897;SDS011;12957;49.434;8.684;2022-08-19T12:21:16;4.88;;;4.47;;
24897;SDS011;12957;49.434;8.684;2022-08-19T12:23:43;5.38;;;4.88;;
24897;SDS011;12957;49.434;8.684;2022-08-19T12:26:10;7.05;;;4.90;;
24897;SDS011;12957;49.434;8.684;2022-08-19T12:28:36;4.82;;;4.43;;
24897;SDS011;12957;49.434;8.684;2022-08-19T12:31:02;5.28;;;4.80;;
24897;SDS011;12957;49.434;8.684;2022-08-19T12:33:27;5.03;;;4.63;;
24897;SDS011;12957;49.434;8.684;2022-08-19T12:35:53;7.07;;;5.28;;
24897;SDS011;12957;49.434;8.684;2022-08-19T12:38:19;5.68;;;5.13;;
24897;SDS011;12957;49.434;8.684;2022-08-19T12:40:47;8.10;;;5.30;;
24897;SDS011;12957;49.434;8.684;2022-08-19T12:43:14;5.70;;;5.22;;
24897;SDS011;12957;49.434;8.684;2022-08-19T12:45:43;5.78;;;5.28;;
24897;SDS011;12957;49.434;8.684;2022-08-19T12:48:10;8.27;;;5.40;;
24897;SDS011;12957;49.434;8.684;2022-08-19T12:50:35;6.28;;;5.68;;
24897;SDS011;12957;49.434;8.684;2022-08-19T12:53:00;5.82;;;5.32;;
24897;SDS011;12957;49.434;8.684;2022-08-19T12:55:26;8.73;;;5.50;;
24897;SDS011;12957;49.434;8.684;2022-08-19T12:57:53;5.65;;;5.25;;
24897;SDS011;12957;49.434;8.684;2022-08-19T13:00:20;7.47;;;4.85;;
24897;SDS011;12957;49.434;8.684;2022-08-19T13:02:46;5.20;;;4.80;;
24897;SDS011;12957;49.434;8.684;2022-08-19T13:05:15;5.47;;;5.07;;
24897;SDS011;12957;49.434;8.684;2022-08-19T13:07:44;5.60;;;5.20;;
24897;SDS011;12957;49.434;8.684;2022-08-19T13:10:11;5.60;;;5.20;;
24897;SDS011;12957;49.434;8.684;2022-08-19T13:12:38;6.90;;;5.20;;
24897;SDS011;12957;49.434;8.684;2022-08-19T13:15:04;6.30;;;4.78;;
24897;SDS011;12957;49.434;8.684;2022-08-19T13:17:30;5.53;;;5.13;;
24897;SDS011;12957;49.434;8.684;2022-08-19T13:19:55;5.50;;;5.05;;
24897;SDS011;12957;49.434;8.684;2022-08-19T13:22:21;6.70;;;4.38;;
24897;SDS011;12957;49.434;8.684;2022-08-19T13:24:46;5.65;;;5.22;;
24897;SDS011;12957;49.434;8.684;2022-08-19T13:27:13;6.43;;;4.78;;
24897;SDS011;12957;49.434;8.684;2022-08-19T13:29:40;4.80;;;4.50;;
24897;SDS011;12957;49.434;8.684;2022-08-19T13:32:24;4.93;;;4.53;;
24897;SDS011;12957;49.434;8.684;2022-08-19T13:35:09;9.15;;;4.60;;
24897;SDS011;12957;49.434;8.684;2022-08-19T13:37:34;5.00;;;4.60;;
24897;SDS011;12957;49.434;8.684;2022-08-19T13:40:07;5.43;;;4.47;;
24897;SDS011;12957;49.434;8.684;2022-08-19T13:42:38;5.53;;;4.80;;
24897;SDS011;12957;49.434;8.684;2022-08-19T13:45:04;5.18;;;4.68;;
24897;SDS011;12957;49.434;8.684;2022-08-19T13:47:31;4.75;;;4.35;;
24897;SDS011;12957;49.434;8.684;2022-08-19T13:49:59;5.25;;;4.30;;
24897;SDS011;12957;49.434;8.684;2022-08-19T13:52:25;5.15;;;4.28;;
24897;SDS011;12957;49.434;8.684;2022-08-19T13:54:50;4.95;;;4.60;;
24897;SDS011;12957;49.434;8.684;2022-08-19T13:57:16;4.20;;;3.60;;
24897;SDS011;12957;49.434;8.684;2022-08-19T13:59:41;4.57;;;4.15;;
24897;SDS011;12957;49.434;8.684;2022-08-19T14:02:07;4.40;;;3.63;;
24897;SDS011;12957;49.434;8.684;2022-08-19T14:04:33;5.95;;;4.18;;
24897;SDS011;12957;49.434;8.684;2022-08-19T14:06:58;4.57;;;3.85;;
24897;SDS011;12957;49.434;8.684;2022-08-19T14:09:24;7.82;;;4.28;;
24897;SDS011;12957;49.434;8.684;2022-08-19T14:11:49;4.32;;;4.05;;
24897;SDS011;12957;49.434;8.684;2022-08-19T14:14:15;5.93;;;4.30;;
24897;SDS011;12957;49.434;8.684;2022-08-19T14:16:41;4.35;;;3.95;;
24897;SDS011;12957;49.434;8.684;2022-08-19T14:19:07;6.70;;;4.18;;
24897;SDS011;12957;49.434;8.684;2022-08-19T14:21:33;5.80;;;4.00;;
24897;SDS011;12957;49.434;8.684;2022-08-19T14:23:59;4.18;;;3.80;;
24897;SDS011;12957;49.434;8.684;2022-08-19T14:26:25;4.30;;;4.00;;
24897;SDS011;12957;49.434;8.684;2022-08-19T14:28:51;5.28;;;4.28;;
24897;SDS011;12957;49.434;8.684;2022-08-19T14:31:17;5.47;;;4.40;;
24897;SDS011;12957;49.434;8.684;2022-08-19T14:33:44;4.45;;;4.05;;
24897;SDS011;12957;49.434;8.684;2022-08-19T14:36:10;3.60;;;3.38;;
24897;SDS011;12957;49.434;8.684;2022-08-19T14:38:36;4.38;;;3.97;;
24897;SDS011;12957;49.434;8.684;2022-08-19T14:41:15;4.30;;;3.90;;
24897;SDS011;12957;49.434;8.684;2022-08-19T14:43:45;4.43;;;4.13;;
24897;SDS011;12957;49.434;8.684;2022-08-19T14:46:12;6.85;;;4.28;;
24897;SDS011;12957;49.434;8.684;2022-08-19T14:48:41;4.72;;;4.18;;
24897;SDS011;12957;49.434;8.684;2022-08-19T14:51:07;4.10;;;3.80;;